createdAt,value
2018-05-02T00:01:37.333Z,4.57
2018-05-02T00:04:04.786Z,4.50
2018-05-02T00:06:32.258Z,4.57
2018-05-02T00:08:59.717Z,4.60
2018-05-02T00:11:28.704Z,4.30
2018-05-02T00:13:56.143Z,4.30
2018-05-02T00:16:23.619Z,4.50
2018-05-02T00:18:51.081Z,5.00
2018-05-02T00:21:18.562Z,4.53
2018-05-02T00:23:46.009Z,4.03
2018-05-02T00:26:14.275Z,4.67
2018-05-02T00:28:43.287Z,4.93
2018-05-02T00:31:10.689Z,4.13
2018-05-02T00:33:38.153Z,4.40
2018-05-02T00:36:05.641Z,4.73
2018-05-02T00:38:33.098Z,3.93
2018-05-02T00:41:00.540Z,4.27
2018-05-02T00:43:28.049Z,4.40
2018-05-02T00:45:56.296Z,3.87
2018-05-02T00:48:24.526Z,3.83
2018-05-02T00:50:52.014Z,4.40
2018-05-02T00:53:19.493Z,3.90
2018-05-02T00:55:46.937Z,4.27
2018-05-02T00:58:15.179Z,3.50
2018-05-02T01:00:42.743Z,3.80
2018-05-02T01:03:10.205Z,4.20
2018-05-02T01:05:37.665Z,3.67
2018-05-02T01:08:05.140Z,4.33
2018-05-02T01:10:33.351Z,3.67
2018-05-02T01:13:00.823Z,4.00
2018-05-02T01:15:28.269Z,4.20
2018-05-02T01:17:55.761Z,3.67
2018-05-02T01:20:23.222Z,3.77
2018-05-02T01:22:50.711Z,4.17
2018-05-02T01:25:19.110Z,3.73
2018-05-02T01:27:46.553Z,3.93
2018-05-02T01:30:14.063Z,3.73
2018-05-02T01:32:41.501Z,3.70
2018-05-02T01:35:09.016Z,3.60
2018-05-02T01:37:36.440Z,3.80
2018-05-02T01:40:05.542Z,3.10
2018-05-02T01:42:32.999Z,3.50
2018-05-02T01:45:01.244Z,3.70
2018-05-02T01:47:28.698Z,3.57
2018-05-02T01:49:56.158Z,3.67
2018-05-02T01:52:23.618Z,3.93
2018-05-02T01:54:51.099Z,3.73
2018-05-02T01:57:20.058Z,4.50
2018-05-02T01:59:47.543Z,4.20
2018-05-02T02:02:14.995Z,3.87
2018-05-02T02:04:42.480Z,4.20
2018-05-02T02:07:10.676Z,4.50
2018-05-02T02:09:38.151Z,3.90
2018-05-02T02:12:05.609Z,3.80
2018-05-02T02:14:33.063Z,4.03
2018-05-02T02:17:00.525Z,3.83
2018-05-02T02:19:27.982Z,3.73
2018-05-02T02:21:55.445Z,3.30
2018-05-02T02:24:22.909Z,3.90
2018-05-02T02:26:50.385Z,3.73
2018-05-02T02:29:18.620Z,3.67
2018-05-02T02:31:46.098Z,3.80
2018-05-02T02:34:13.557Z,3.33
2018-05-02T02:36:41.037Z,3.83
2018-05-02T02:39:09.279Z,3.93
2018-05-02T02:41:36.760Z,3.70
2018-05-02T02:44:04.189Z,3.23
2018-05-02T02:46:31.689Z,3.33
2018-05-02T02:48:59.907Z,3.10
2018-05-02T02:51:27.379Z,3.73
2018-05-02T02:53:54.846Z,3.50
2018-05-02T02:56:22.323Z,3.40
2018-05-02T02:58:50.535Z,3.50
2018-05-02T03:01:18.032Z,3.50
2018-05-02T03:03:45.485Z,3.23
2018-05-02T03:06:12.934Z,4.00
2018-05-02T03:08:40.415Z,3.50
2018-05-02T03:11:08.638Z,4.17
2018-05-02T03:13:36.107Z,4.20
2018-05-02T03:16:03.561Z,3.50
2018-05-02T03:18:31.030Z,3.73
2018-05-02T03:20:58.497Z,4.10
2018-05-02T03:23:25.952Z,3.43
2018-05-02T03:25:53.413Z,4.23
2018-05-02T03:28:20.880Z,3.67
2018-05-02T03:30:48.366Z,4.77
2018-05-02T03:33:16.586Z,4.00
2018-05-02T03:35:44.086Z,4.63
2018-05-02T03:38:12.325Z,4.23
2018-05-02T03:40:39.789Z,4.70
2018-05-02T03:43:07.240Z,4.50
2018-05-02T03:45:34.710Z,5.70
2018-05-02T03:48:02.162Z,4.90
2018-05-02T03:50:31.142Z,4.77
2018-05-02T03:52:58.619Z,4.97
2018-05-02T03:55:26.063Z,5.70
2018-05-02T03:57:53.505Z,5.00
2018-05-02T04:00:32.876Z,5.63
2018-05-02T04:03:13.026Z,6.23
2018-05-02T04:05:53.274Z,5.20
2018-05-02T04:08:20.731Z,4.40
2018-05-02T04:10:48.179Z,5.83
2018-05-02T04:13:15.649Z,5.60
2018-05-02T04:15:43.903Z,4.97
2018-05-02T04:18:11.357Z,5.30
2018-05-02T04:20:38.817Z,5.63
2018-05-02T04:23:06.282Z,5.13
2018-05-02T04:25:34.502Z,5.70
2018-05-02T04:28:01.968Z,5.70
2018-05-02T04:30:29.430Z,5.57
2018-05-02T04:32:56.893Z,5.20
2018-05-02T04:35:24.353Z,5.40
2018-05-02T04:37:51.846Z,5.40
2018-05-02T04:40:19.317Z,4.80
2018-05-02T04:42:47.557Z,5.70
2018-05-02T04:45:15.025Z,4.97
2018-05-02T04:47:42.505Z,5.33
2018-05-02T04:50:10.737Z,4.80
2018-05-02T04:52:38.302Z,4.90
2018-05-02T04:55:06.453Z,5.13
2018-05-02T04:57:33.909Z,5.20
2018-05-02T05:00:01.394Z,4.23
2018-05-02T05:02:28.846Z,5.27
2018-05-02T05:04:56.330Z,5.60
2018-05-02T05:07:24.704Z,5.20
2018-05-02T05:09:52.162Z,5.70
2018-05-02T05:12:20.404Z,5.17
2018-05-02T05:14:47.840Z,5.13
2018-05-02T05:17:15.284Z,5.67
2018-05-02T05:19:42.743Z,5.37
2018-05-02T05:22:10.199Z,5.23
2018-05-02T05:24:37.678Z,5.17
2018-05-02T05:27:05.121Z,5.93
2018-05-02T05:29:32.572Z,5.50
2018-05-02T05:32:00.068Z,5.50
2018-05-02T05:34:29.069Z,5.30
2018-05-02T05:36:56.537Z,5.87
2018-05-02T05:39:24.766Z,5.37
2018-05-02T05:41:52.217Z,5.63
2018-05-02T05:44:19.715Z,5.70
2018-05-02T05:46:47.157Z,6.30
2018-05-02T05:49:14.613Z,5.60
2018-05-02T05:51:42.096Z,5.37
2018-05-02T05:54:10.348Z,5.50
2018-05-02T05:56:37.812Z,6.40
2018-05-02T05:59:05.257Z,6.80
2018-05-02T06:01:32.730Z,5.77
2018-05-02T06:04:00.953Z,6.13
2018-05-02T06:06:28.395Z,5.27
2018-05-02T06:08:55.866Z,5.70
2018-05-02T06:11:23.330Z,6.07
2018-05-02T06:13:51.194Z,5.67
2018-05-02T06:16:18.636Z,4.97
2018-05-02T06:18:46.173Z,5.70
2018-05-02T06:21:13.570Z,5.90
2018-05-02T06:23:41.022Z,6.00
2018-05-02T06:26:08.554Z,6.60
2018-05-02T06:28:35.981Z,6.73
2018-05-02T06:31:04.196Z,6.43
2018-05-02T06:33:31.661Z,7.10
2018-05-02T06:35:59.138Z,6.90
2018-05-02T06:38:26.622Z,6.40
2018-05-02T06:40:54.850Z,6.23
2018-05-02T06:43:22.337Z,6.87
2018-05-02T06:45:49.782Z,7.33
2018-05-02T06:48:17.259Z,6.70
2018-05-02T06:50:44.750Z,6.67
2018-05-02T06:53:12.206Z,6.50
2018-05-02T06:55:39.677Z,6.20
2018-05-02T06:58:07.148Z,7.37
2018-05-02T07:00:34.594Z,6.33
2018-05-02T07:03:02.063Z,6.50
2018-05-02T07:05:29.561Z,7.07
2018-05-02T07:07:57.792Z,6.10
2018-05-02T07:10:25.286Z,6.47
2018-05-02T07:12:52.745Z,6.00
2018-05-02T07:15:20.208Z,6.40
2018-05-02T07:17:48.425Z,6.10
2018-05-02T07:20:15.882Z,5.83
2018-05-02T07:22:43.355Z,5.93
2018-05-02T07:25:10.808Z,6.20
2018-05-02T07:27:38.291Z,5.73
2018-05-02T07:30:05.736Z,5.70
2018-05-02T07:32:33.343Z,5.60
2018-05-02T07:35:01.427Z,6.77
2018-05-02T07:37:28.921Z,5.23
2018-05-02T07:39:56.364Z,6.43
2018-05-02T07:42:23.837Z,5.33
2018-05-02T07:44:51.325Z,5.20
2018-05-02T07:47:18.797Z,5.87
2018-05-02T07:49:46.239Z,5.50
2018-05-02T07:52:14.469Z,5.33
2018-05-02T07:54:41.944Z,6.50
2018-05-02T07:57:10.914Z,6.20
2018-05-02T07:59:38.401Z,5.00
2018-05-02T08:02:05.878Z,5.40
2018-05-02T08:04:34.141Z,5.57
2018-05-02T08:07:02.358Z,5.67
2018-05-02T08:09:29.834Z,5.87
2018-05-02T08:11:57.296Z,5.57
2018-05-02T08:14:24.743Z,5.73
2018-05-02T08:16:52.229Z,5.27
2018-05-02T08:19:19.669Z,5.43
2018-05-02T08:21:47.131Z,4.77
2018-05-02T08:24:14.634Z,5.63
2018-05-02T08:26:42.105Z,5.07
2018-05-02T08:29:09.597Z,5.37
2018-05-02T08:31:37.047Z,4.30
2018-05-02T08:34:04.524Z,4.97
2018-05-02T08:36:33.473Z,5.20
2018-05-02T08:39:00.953Z,4.30
2018-05-02T08:41:28.417Z,4.53
2018-05-02T08:43:55.894Z,5.10
2018-05-02T08:46:24.134Z,4.87
2018-05-02T08:48:51.593Z,3.87
2018-05-02T08:51:19.065Z,4.70
2018-05-02T08:53:46.540Z,4.37
2018-05-02T08:56:14.765Z,4.47
2018-05-02T08:58:42.251Z,5.20
2018-05-02T09:01:09.700Z,4.70
2018-05-02T09:03:37.197Z,4.10
2018-05-02T09:06:05.506Z,4.57
2018-05-02T09:08:32.973Z,3.87
2018-05-02T09:11:00.542Z,3.50
2018-05-02T09:13:27.994Z,4.20
2018-05-02T09:15:55.467Z,5.33
2018-05-02T09:18:23.690Z,4.40
2018-05-02T09:20:51.173Z,3.93
2018-05-02T09:23:18.625Z,4.03
2018-05-02T09:25:46.115Z,4.03
2018-05-02T09:28:13.566Z,5.20
2018-05-02T09:30:41.033Z,4.10
2018-05-02T09:33:08.486Z,3.43
2018-05-02T09:35:36.046Z,3.47
2018-05-02T09:38:03.426Z,4.13
2018-05-02T09:40:30.878Z,3.60
2018-05-02T09:42:59.111Z,4.13
2018-05-02T09:45:26.558Z,4.40
2018-05-02T09:47:54.042Z,4.17
2018-05-02T09:50:22.257Z,4.50
2018-05-02T09:52:49.719Z,4.50
2018-05-02T09:55:17.165Z,4.27
2018-05-02T09:57:44.631Z,4.27
2018-05-02T10:00:12.082Z,4.83
2018-05-02T10:02:39.550Z,4.20
2018-05-02T10:05:06.994Z,4.60
2018-05-02T10:07:34.492Z,4.33
2018-05-02T10:10:01.953Z,3.90
2018-05-02T10:12:29.415Z,3.90
2018-05-02T10:14:56.877Z,3.60
2018-05-02T10:17:25.098Z,4.23
2018-05-02T10:19:52.593Z,4.23
2018-05-02T10:22:20.030Z,4.47
2018-05-02T10:24:47.504Z,4.23
2018-05-02T10:27:14.942Z,3.90
2018-05-02T10:29:42.422Z,3.70
2018-05-02T10:32:10.706Z,4.13
2018-05-02T10:34:38.952Z,5.43
2018-05-02T10:37:06.391Z,4.57
2018-05-02T10:39:33.872Z,4.73
2018-05-02T10:42:01.341Z,5.50
2018-05-02T10:44:28.805Z,5.60
2018-05-02T10:46:57.787Z,4.00
2018-05-02T10:49:25.271Z,4.27
2018-05-02T10:51:53.499Z,5.00
2018-05-02T10:54:20.937Z,6.33
2018-05-02T10:56:48.410Z,7.60
2018-05-02T10:59:15.879Z,4.60
2018-05-02T11:01:43.357Z,4.90
2018-05-02T11:04:10.819Z,5.40
2018-05-02T11:06:39.789Z,4.50
2018-05-02T11:09:07.234Z,4.17
2018-05-02T11:11:34.694Z,4.13
2018-05-02T11:14:02.174Z,3.90
2018-05-02T11:16:29.646Z,4.27
2018-05-02T11:18:57.085Z,3.70
2018-05-02T11:21:24.547Z,5.17
2018-05-02T11:23:51.990Z,5.33
2018-05-02T11:26:19.464Z,4.43
2018-05-02T11:28:47.710Z,4.30
2018-05-02T11:31:15.173Z,3.90
2018-05-02T11:33:42.622Z,4.43
2018-05-02T11:36:10.082Z,4.37
2018-05-02T11:38:37.554Z,3.50
2018-05-02T11:41:05.062Z,3.87
2018-05-02T11:43:32.558Z,3.70
2018-05-02T11:46:00.026Z,3.60
2018-05-02T11:48:28.258Z,3.70
2018-05-02T11:50:55.735Z,5.00
2018-05-02T11:53:23.213Z,4.30
2018-05-02T11:55:50.696Z,3.80
2018-05-02T11:58:18.938Z,5.40
2018-05-02T12:00:46.393Z,4.60
2018-05-02T12:03:14.032Z,4.43
2018-05-02T12:05:41.306Z,4.17
2018-05-02T12:08:09.561Z,3.93
2018-05-02T12:10:37.046Z,3.20
2018-05-02T12:13:04.514Z,3.00
2018-05-02T12:15:32.020Z,4.23
2018-05-02T12:17:59.467Z,2.93
2018-05-02T12:20:26.965Z,4.07
2018-05-02T12:22:54.418Z,3.40
2018-05-02T12:25:21.877Z,3.83
2018-05-02T12:27:49.427Z,3.40
2018-05-02T12:30:17.570Z,3.10
2018-05-02T12:32:45.039Z,3.60
2018-05-02T12:35:12.501Z,3.73
2018-05-02T12:37:39.967Z,3.03
2018-05-02T12:40:07.440Z,3.20
2018-05-02T12:42:34.918Z,3.63
2018-05-02T12:45:03.158Z,3.13
2018-05-02T12:47:30.618Z,2.47
2018-05-02T12:49:58.085Z,2.53
2018-05-02T12:52:25.535Z,3.00
2018-05-02T12:54:52.995Z,2.33
2018-05-02T12:57:20.463Z,2.07
2018-05-02T12:59:48.722Z,2.73
2018-05-02T13:02:16.190Z,3.50
2018-05-02T13:04:43.668Z,2.53
2018-05-02T13:07:11.925Z,2.50
2018-05-02T13:09:40.193Z,3.33
2018-05-02T13:12:07.630Z,2.87
2018-05-02T13:14:35.117Z,2.13
2018-05-02T13:17:03.349Z,2.67
2018-05-02T13:19:30.816Z,2.40
2018-05-02T13:21:58.282Z,2.67
2018-05-02T13:24:25.777Z,2.27
2018-05-02T13:26:54.000Z,2.53
2018-05-02T13:29:21.494Z,2.13
2018-05-02T13:31:48.925Z,2.37
2018-05-02T13:34:16.399Z,2.80
2018-05-02T13:36:43.861Z,2.43
2018-05-02T13:39:11.376Z,2.23
2018-05-02T13:41:38.830Z,2.50
2018-05-02T13:44:06.299Z,2.37
2018-05-02T13:46:33.755Z,2.60
2018-05-02T13:49:01.234Z,2.47
2018-05-02T13:51:28.681Z,3.00
2018-05-02T13:53:56.149Z,3.03
2018-05-02T13:56:23.615Z,1.90
2018-05-02T13:58:51.870Z,2.50
2018-05-02T14:01:19.337Z,2.60
2018-05-02T14:03:46.812Z,2.90
2018-05-02T14:06:15.044Z,2.30
2018-05-02T14:08:42.518Z,2.40
2018-05-02T14:11:09.962Z,2.93
2018-05-02T14:13:38.204Z,2.30
2018-05-02T14:16:05.670Z,2.30
2018-05-02T14:18:33.262Z,2.30
2018-05-02T14:21:00.735Z,2.30
2018-05-02T14:23:28.954Z,2.00
2018-05-02T14:25:56.454Z,1.40
2018-05-02T14:28:23.911Z,1.90
2018-05-02T14:30:51.387Z,2.50
2018-05-02T14:33:19.638Z,2.00
2018-05-02T14:35:47.107Z,1.50
2018-05-02T14:38:15.369Z,2.10
2018-05-02T14:40:42.809Z,2.10
2018-05-02T14:43:10.316Z,2.10
2018-05-02T14:45:37.754Z,2.17
2018-05-02T14:48:05.998Z,1.43
2018-05-02T14:50:33.451Z,2.13
2018-05-02T14:53:00.930Z,2.50
2018-05-02T14:55:28.395Z,2.07
2018-05-02T14:57:55.877Z,2.40
2018-05-02T15:00:23.321Z,1.70
2018-05-02T15:02:50.977Z,1.87
2018-05-02T15:05:19.181Z,2.50
2018-05-02T15:07:46.656Z,1.90
2018-05-02T15:10:14.124Z,2.60
2018-05-02T15:12:41.591Z,2.30
2018-05-02T15:15:09.030Z,2.57
2018-05-02T15:17:36.508Z,2.77
2018-05-02T15:20:04.049Z,2.70
2018-05-02T15:22:31.527Z,2.80
2018-05-02T15:24:58.998Z,2.73
2018-05-02T15:27:27.244Z,3.40
2018-05-02T15:29:54.723Z,3.00
2018-05-02T15:32:22.957Z,2.93
2018-05-02T15:34:50.421Z,2.93
2018-05-02T15:37:17.880Z,2.30
2018-05-02T15:39:45.359Z,3.03
2018-05-02T15:42:12.835Z,3.00
2018-05-02T15:44:40.376Z,3.23
2018-05-02T15:47:09.391Z,2.43
2018-05-02T15:49:37.611Z,3.17
2018-05-02T15:52:05.068Z,3.30
2018-05-02T15:54:32.567Z,3.07
2018-05-02T15:57:00.786Z,2.93
2018-05-02T15:59:28.274Z,3.07
2018-05-02T16:01:57.223Z,3.17
2018-05-02T16:04:24.709Z,3.20
2018-05-02T16:06:52.158Z,2.83
2018-05-02T16:09:19.616Z,3.53
2018-05-02T16:11:47.074Z,2.97
2018-05-02T16:14:14.564Z,3.40
2018-05-02T16:16:42.047Z,3.23
2018-05-02T16:19:09.494Z,3.70
2018-05-02T16:21:37.738Z,2.73
2018-05-02T16:24:05.194Z,2.87
2018-05-02T16:26:32.763Z,2.90
2018-05-02T16:29:00.157Z,3.07
2018-05-02T16:31:27.658Z,3.53
2018-05-02T16:33:56.007Z,3.50
2018-05-02T16:36:23.564Z,2.47
2018-05-02T16:38:51.709Z,2.80
2018-05-02T16:41:19.174Z,2.73
2018-05-02T16:43:46.667Z,3.17
2018-05-02T16:46:14.131Z,2.80
2018-05-02T16:48:41.629Z,3.30
2018-05-02T16:51:09.872Z,2.73
2018-05-02T16:53:37.373Z,3.70
2018-05-02T16:56:04.833Z,3.50
2018-05-02T16:58:32.346Z,2.70
2018-05-02T17:01:00.568Z,3.37
2018-05-02T17:03:28.039Z,3.80
2018-05-02T17:05:55.497Z,2.90
2018-05-02T17:08:22.981Z,2.90
2018-05-02T17:10:50.466Z,3.20
2018-05-02T17:13:17.929Z,2.77
2018-05-02T17:15:46.227Z,3.10
2018-05-02T17:18:13.746Z,3.10
2018-05-02T17:20:41.289Z,3.07
2018-05-02T17:23:08.747Z,2.60
2018-05-02T17:25:36.230Z,3.10
2018-05-02T17:28:04.458Z,3.00
2018-05-02T17:30:32.001Z,2.90
2018-05-02T17:32:59.456Z,2.93
2018-05-02T17:35:26.966Z,3.00
2018-05-02T17:37:55.187Z,3.00
2018-05-02T17:40:22.661Z,3.10
2018-05-02T17:42:50.131Z,2.80
2018-05-02T17:45:17.572Z,2.80
2018-05-02T17:47:45.053Z,2.90
2018-05-02T17:50:12.533Z,2.80
2018-05-02T17:52:40.813Z,2.93
2018-05-02T17:55:08.263Z,2.70
2018-05-02T17:57:36.537Z,2.60
2018-05-02T18:00:04.759Z,2.70
2018-05-02T18:02:32.276Z,3.13
2018-05-02T18:05:00.481Z,3.57
2018-05-02T18:07:27.987Z,3.27
2018-05-02T18:09:55.457Z,3.30
2018-05-02T18:12:23.751Z,3.10
2018-05-02T18:14:51.224Z,2.77
2018-05-02T18:17:18.726Z,4.20
2018-05-02T18:19:46.174Z,3.70
2018-05-02T18:22:13.641Z,4.10
2018-05-02T18:24:41.118Z,3.33
2018-05-02T18:27:09.365Z,4.13
2018-05-02T18:29:36.852Z,3.93
2018-05-02T18:32:05.098Z,3.77
2018-05-02T18:34:32.583Z,4.20
2018-05-02T18:37:00.840Z,3.70
2018-05-02T18:39:28.327Z,3.70
2018-05-02T18:41:55.799Z,3.73
2018-05-02T18:44:23.286Z,4.90
2018-05-02T18:46:50.735Z,6.40
2018-05-02T18:49:18.210Z,5.27
2018-05-02T18:51:45.692Z,2.63
2018-05-02T18:54:13.933Z,2.33
2018-05-02T18:56:41.466Z,2.77
2018-05-02T18:59:08.938Z,2.57
2018-05-02T19:01:36.423Z,2.43
2018-05-02T19:04:03.911Z,3.10
2018-05-02T19:06:32.217Z,2.77
2018-05-02T19:08:59.671Z,2.10
2018-05-02T19:11:27.170Z,2.87
2018-05-02T19:14:00.292Z,3.13
2018-05-02T19:16:27.802Z,2.63
2018-05-02T19:19:00.850Z,3.00
2018-05-02T19:21:28.362Z,2.90
2018-05-02T19:23:55.892Z,2.70
2018-05-02T19:26:29.838Z,2.90
2018-05-02T19:28:58.095Z,2.90
2018-05-02T19:31:31.351Z,2.77
2018-05-02T19:33:58.812Z,2.47
2018-05-02T19:36:26.274Z,2.40
2018-05-02T19:38:53.784Z,3.00
2018-05-02T19:41:27.910Z,2.80
2018-05-02T19:44:00.964Z,2.20
2018-05-02T19:46:28.450Z,3.50
2018-05-02T19:48:56.699Z,2.70
2018-05-02T19:51:29.751Z,3.00
2018-05-02T19:53:57.220Z,2.80
2018-05-02T19:56:24.687Z,2.40
2018-05-02T19:58:52.184Z,3.60
2018-05-02T20:01:25.406Z,3.53
2018-05-02T20:03:52.912Z,4.10
2018-05-02T20:06:20.408Z,2.63
2018-05-02T20:08:53.512Z,3.93
2018-05-02T20:11:26.728Z,3.27
2018-05-02T20:14:00.015Z,3.20
2018-05-02T20:16:27.481Z,3.50
2018-05-02T20:18:54.968Z,2.73
2018-05-02T20:21:23.201Z,3.47
2018-05-02T20:23:50.713Z,3.30
2018-05-02T20:26:18.191Z,3.10
2018-05-02T20:28:45.690Z,3.73
2018-05-02T20:31:13.183Z,3.87
2018-05-02T20:33:40.685Z,4.03
2018-05-02T20:36:08.182Z,4.20
2018-05-02T20:38:36.405Z,3.70
2018-05-02T20:41:03.873Z,4.57
2018-05-02T20:43:31.350Z,4.60
2018-05-02T20:45:58.822Z,3.60
2018-05-02T20:48:27.228Z,4.30
2018-05-02T20:50:54.711Z,4.50
2018-05-02T20:53:22.175Z,3.80
2018-05-02T20:55:49.680Z,3.70
2018-05-02T20:58:17.954Z,4.27
2018-05-02T21:00:45.423Z,3.63
2018-05-02T21:03:13.900Z,4.50
2018-05-02T21:05:41.390Z,3.90
2018-05-02T21:08:08.876Z,4.20
2018-05-02T21:10:36.354Z,4.60
2018-05-02T21:13:04.590Z,4.03
2018-05-02T21:15:32.089Z,4.47
2018-05-02T21:18:00.318Z,3.63
2018-05-02T21:20:27.789Z,6.07
2018-05-02T21:22:55.257Z,4.50
2018-05-02T21:25:22.725Z,4.10
2018-05-02T21:27:50.952Z,4.70
2018-05-02T21:30:18.426Z,5.37
2018-05-02T21:32:45.866Z,5.20
2018-05-02T21:35:13.334Z,5.73
2018-05-02T21:37:41.614Z,4.23
2018-05-02T21:40:09.838Z,5.17
2018-05-02T21:42:37.300Z,5.03
2018-05-02T21:45:04.798Z,5.83
2018-05-02T21:47:32.264Z,4.73
2018-05-02T21:49:59.718Z,4.40
2018-05-02T21:52:27.214Z,4.43
2018-05-02T21:54:54.702Z,4.03
2018-05-02T21:57:22.175Z,4.07
2018-05-02T21:59:49.656Z,4.33
2018-05-02T22:02:17.115Z,4.50
2018-05-02T22:04:44.581Z,4.93
2018-05-02T22:07:12.830Z,4.60
2018-05-02T22:09:40.285Z,4.60
2018-05-02T22:12:07.761Z,3.53
2018-05-02T22:14:36.022Z,4.47
2018-05-02T22:17:04.268Z,4.47
2018-05-02T22:19:31.740Z,3.97
2018-05-02T22:21:59.213Z,3.73
2018-05-02T22:24:26.697Z,3.90
2018-05-02T22:26:54.178Z,4.10
2018-05-02T22:29:21.668Z,4.17
2018-05-02T22:31:49.113Z,3.97
2018-05-02T22:34:16.572Z,3.53
2018-05-02T22:36:44.057Z,3.80
2018-05-02T22:39:11.511Z,3.97
2018-05-02T22:41:38.986Z,4.30
2018-05-02T22:44:07.235Z,3.67
2018-05-02T22:46:34.711Z,4.33
2018-05-02T22:49:02.965Z,4.40
2018-05-02T22:51:30.467Z,3.80
2018-05-02T22:53:57.970Z,4.00
2018-05-02T22:56:25.498Z,4.30
2018-05-02T22:58:52.949Z,4.20
2018-05-02T23:01:20.437Z,4.00
2018-05-02T23:03:47.910Z,3.53
2018-05-02T23:06:15.390Z,4.67
2018-05-02T23:08:43.722Z,3.90
2018-05-02T23:11:11.203Z,3.80
2018-05-02T23:13:38.678Z,4.27
2018-05-02T23:16:06.913Z,3.87
2018-05-02T23:18:34.381Z,4.17
2018-05-02T23:21:01.840Z,4.50
2018-05-02T23:23:29.308Z,4.27
2018-05-02T23:25:56.746Z,4.80
2018-05-02T23:28:24.233Z,4.50
2018-05-02T23:30:52.448Z,3.53
2018-05-02T23:33:19.921Z,3.73
2018-05-02T23:35:47.404Z,3.70
2018-05-02T23:38:14.853Z,4.00
2018-05-02T23:40:43.082Z,4.43
2018-05-02T23:43:10.522Z,3.87
2018-05-02T23:45:38.132Z,4.37
2018-05-02T23:48:05.579Z,3.73
2018-05-02T23:50:33.040Z,4.50
2018-05-02T23:53:00.493Z,3.93
2018-05-02T23:55:27.950Z,3.67
2018-05-02T23:57:55.442Z,4.40
